sensor_id;sensor_type;location;lat;lon;timestamp;temperature;humidity
78708;SHT31;68037;51.978;5.650;2023-09-19T00:00:49;17.9;72.9
78708;SHT31;68037;51.978;5.650;2023-09-19T00:03:18;17.9;72.3
78708;SHT31;68037;51.978;5.650;2023-09-19T00:05:50;17.9;72.7
78708;SHT31;68037;51.978;5.650;2023-09-19T00:08:19;17.9;73.4
78708;SHT31;68037;51.978;5.650;2023-09-19T00:10:51;17.9;72.9
78708;SHT31;68037;51.978;5.650;2023-09-19T00:13:22;17.9;72.9
78708;SHT31;68037;51.978;5.650;2023-09-19T00:15:52;17.9;72.9
78708;SHT31;68037;51.978;5.650;2023-09-19T00:18:23;17.9;72.7
78708;SHT31;68037;51.978;5.650;2023-09-19T00:20:59;17.9;72.5
78708;SHT31;68037;51.978;5.650;2023-09-19T00:23:28;17.9;72.1
78708;SHT31;68037;51.978;5.650;2023-09-19T00:26:00;17.8;72.5
78708;SHT31;68037;51.978;5.650;2023-09-19T00:28:31;17.8;73.0
78708;SHT31;68037;51.978;5.650;2023-09-19T00:31:04;17.7;73.3
78708;SHT31;68037;51.978;5.650;2023-09-19T00:33:37;17.7;74.2
78708;SHT31;68037;51.978;5.650;2023-09-19T00:36:07;17.7;74.3
78708;SHT31;68037;51.978;5.650;2023-09-19T00:38:37;17.7;73.9
78708;SHT31;68037;51.978;5.650;2023-09-19T00:41:06;17.7;74.4
78708;SHT31;68037;51.978;5.650;2023-09-19T00:43:36;17.7;74.2
78708;SHT31;68037;51.978;5.650;2023-09-19T00:46:08;17.7;74.4
78708;SHT31;68037;51.978;5.650;2023-09-19T00:48:41;17.7;74.6
78708;SHT31;68037;51.978;5.650;2023-09-19T00:51:14;17.7;74.7
78708;SHT31;68037;51.978;5.650;2023-09-19T00:53:46;17.8;73.9
78708;SHT31;68037;51.978;5.650;2023-09-19T00:56:16;17.8;74.1
78708;SHT31;68037;51.978;5.650;2023-09-19T00:58:46;17.8;74.3
78708;SHT31;68037;51.978;5.650;2023-09-19T01:01:16;17.8;74.4
78708;SHT31;68037;51.978;5.650;2023-09-19T01:03:46;17.9;74.2
78708;SHT31;68037;51.978;5.650;2023-09-19T01:06:17;17.9;74.4
78708;SHT31;68037;51.978;5.650;2023-09-19T01:08:47;17.9;74.1
78708;SHT31;68037;51.978;5.650;2023-09-19T01:11:25;17.9;74.0
78708;SHT31;68037;51.978;5.650;2023-09-19T01:14:06;17.9;73.9
78708;SHT31;68037;51.978;5.650;2023-09-19T01:16:50;17.9;74.4
78708;SHT31;68037;51.978;5.650;2023-09-19T01:19:52;17.9;74.6
78708;SHT31;68037;51.978;5.650;2023-09-19T01:22:29;17.9;74.4
78708;SHT31;68037;51.978;5.650;2023-09-19T01:25:28;17.9;73.8
78708;SHT31;68037;51.978;5.650;2023-09-19T01:28:18;17.9;73.3
78708;SHT31;68037;51.978;5.650;2023-09-19T01:30:52;17.9;72.5
78708;SHT31;68037;51.978;5.650;2023-09-19T01:33:25;17.9;72.9
78708;SHT31;68037;51.978;5.650;2023-09-19T01:36:00;17.8;71.1
78708;SHT31;68037;51.978;5.650;2023-09-19T01:38:31;17.8;71.3
78708;SHT31;68037;51.978;5.650;2023-09-19T01:41:11;17.8;71.1
78708;SHT31;68037;51.978;5.650;2023-09-19T01:43:43;17.8;70.0
78708;SHT31;68037;51.978;5.650;2023-09-19T01:46:18;17.7;70.4
78708;SHT31;68037;51.978;5.650;2023-09-19T01:48:57;17.7;69.8
78708;SHT31;68037;51.978;5.650;2023-09-19T01:51:37;17.6;70.7
78708;SHT31;68037;51.978;5.650;2023-09-19T01:54:12;17.6;70.1
78708;SHT31;68037;51.978;5.650;2023-09-19T01:56:52;17.6;69.9
78708;SHT31;68037;51.978;5.650;2023-09-19T01:59:28;17.7;69.2
78708;SHT31;68037;51.978;5.650;2023-09-19T02:02:03;17.7;69.1
78708;SHT31;68037;51.978;5.650;2023-09-19T02:04:34;17.7;69.3
78708;SHT31;68037;51.978;5.650;2023-09-19T02:07:06;17.6;69.4
78708;SHT31;68037;51.978;5.650;2023-09-19T02:09:35;17.6;68.7
78708;SHT31;68037;51.978;5.650;2023-09-19T02:12:07;17.6;69.3
78708;SHT31;68037;51.978;5.650;2023-09-19T02:14:36;17.5;69.3
78708;SHT31;68037;51.978;5.650;2023-09-19T02:17:06;17.5;68.5
78708;SHT31;68037;51.978;5.650;2023-09-19T02:19:38;17.4;68.8
78708;SHT31;68037;51.978;5.650;2023-09-19T02:22:08;17.4;68.8
78708;SHT31;68037;51.978;5.650;2023-09-19T02:24:39;17.3;69.1
78708;SHT31;68037;51.978;5.650;2023-09-19T02:27:08;17.3;69.1
78708;SHT31;68037;51.978;5.650;2023-09-19T02:29:41;17.2;68.3
78708;SHT31;68037;51.978;5.650;2023-09-19T02:32:11;17.2;68.9
78708;SHT31;68037;51.978;5.650;2023-09-19T02:34:40;17.2;68.2
78708;SHT31;68037;51.978;5.650;2023-09-19T02:37:10;17.1;67.9
78708;SHT31;68037;51.978;5.650;2023-09-19T02:39:40;17.1;67.9
78708;SHT31;68037;51.978;5.650;2023-09-19T02:42:10;17.0;68.4
78708;SHT31;68037;51.978;5.650;2023-09-19T02:44:41;17.0;67.6
78708;SHT31;68037;51.978;5.650;2023-09-19T02:47:14;16.9;67.8
78708;SHT31;68037;51.978;5.650;2023-09-19T02:49:44;16.9;67.7
78708;SHT31;68037;51.978;5.650;2023-09-19T02:52:13;16.9;67.5
78708;SHT31;68037;51.978;5.650;2023-09-19T02:54:44;16.8;68.4
78708;SHT31;68037;51.978;5.650;2023-09-19T02:57:14;16.8;68.1
78708;SHT31;68037;51.978;5.650;2023-09-19T02:59:45;16.8;67.4
78708;SHT31;68037;51.978;5.650;2023-09-19T03:02:14;16.8;66.9
78708;SHT31;68037;51.978;5.650;2023-09-19T03:04:44;16.8;66.4
78708;SHT31;68037;51.978;5.650;2023-09-19T03:07:14;16.7;66.7
78708;SHT31;68037;51.978;5.650;2023-09-19T03:09:44;16.7;66.3
78708;SHT31;68037;51.978;5.650;2023-09-19T03:12:15;16.6;66.5
78708;SHT31;68037;51.978;5.650;2023-09-19T03:14:48;16.6;66.7
78708;SHT31;68037;51.978;5.650;2023-09-19T03:17:18;16.6;66.2
78708;SHT31;68037;51.978;5.650;2023-09-19T03:19:50;16.5;67.3
78708;SHT31;68037;51.978;5.650;2023-09-19T03:22:21;16.5;66.5
78708;SHT31;68037;51.978;5.650;2023-09-19T03:24:52;16.5;66.7
78708;SHT31;68037;51.978;5.650;2023-09-19T03:27:21;16.5;66.7
78708;SHT31;68037;51.978;5.650;2023-09-19T03:29:51;16.5;65.5
78708;SHT31;68037;51.978;5.650;2023-09-19T03:32:22;16.4;65.1
78708;SHT31;68037;51.978;5.650;2023-09-19T03:34:54;16.4;65.5
78708;SHT31;68037;51.978;5.650;2023-09-19T03:37:24;16.4;65.4
78708;SHT31;68037;51.978;5.650;2023-09-19T03:39:53;16.4;65.3
78708;SHT31;68037;51.978;5.650;2023-09-19T03:42:23;16.4;65.2
78708;SHT31;68037;51.978;5.650;2023-09-19T03:44:54;16.3;64.8
78708;SHT31;68037;51.978;5.650;2023-09-19T03:47:24;16.3;65.0
78708;SHT31;68037;51.978;5.650;2023-09-19T03:49:55;16.3;65.4
78708;SHT31;68037;51.978;5.650;2023-09-19T03:52:24;16.3;64.8
78708;SHT31;68037;51.978;5.650;2023-09-19T03:54:54;16.3;65.5
78708;SHT31;68037;51.978;5.650;2023-09-19T03:57:23;16.3;65.1
78708;SHT31;68037;51.978;5.650;2023-09-19T03:59:52;16.3;64.9
78708;SHT31;68037;51.978;5.650;2023-09-19T04:02:23;16.3;64.8
78708;SHT31;68037;51.978;5.650;2023-09-19T04:04:53;16.4;64.2
78708;SHT31;68037;51.978;5.650;2023-09-19T04:07:22;16.4;65.0
78708;SHT31;68037;51.978;5.650;2023-09-19T04:09:56;16.4;64.3
78708;SHT31;68037;51.978;5.650;2023-09-19T04:12:25;16.4;63.9
78708;SHT31;68037;51.978;5.650;2023-09-19T04:14:57;16.5;63.6
78708;SHT31;68037;51.978;5.650;2023-09-19T04:17:28;16.6;63.5
78708;SHT31;68037;51.978;5.650;2023-09-19T04:20:00;16.6;63.3
78708;SHT31;68037;51.978;5.650;2023-09-19T04:22:33;16.6;63.4
78708;SHT31;68037;51.978;5.650;2023-09-19T04:25:07;16.6;63.0
78708;SHT31;68037;51.978;5.650;2023-09-19T04:27:37;16.6;62.8
78708;SHT31;68037;51.978;5.650;2023-09-19T04:30:08;16.6;63.0
78708;SHT31;68037;51.978;5.650;2023-09-19T04:32:40;16.6;63.0
78708;SHT31;68037;51.978;5.650;2023-09-19T04:35:11;16.6;63.1
78708;SHT31;68037;51.978;5.650;2023-09-19T04:37:41;16.6;63.4
78708;SHT31;68037;51.978;5.650;2023-09-19T04:40:11;16.6;63.2
78708;SHT31;68037;51.978;5.650;2023-09-19T04:42:44;16.6;63.2
78708;SHT31;68037;51.978;5.650;2023-09-19T04:45:15;16.6;63.6
78708;SHT31;68037;51.978;5.650;2023-09-19T04:47:47;16.5;63.8
78708;SHT31;68037;51.978;5.650;2023-09-19T04:50:17;16.5;63.7
78708;SHT31;68037;51.978;5.650;2023-09-19T04:52:49;16.5;63.6
78708;SHT31;68037;51.978;5.650;2023-09-19T04:55:19;16.5;63.7
78708;SHT31;68037;51.978;5.650;2023-09-19T04:57:50;16.5;63.9
78708;SHT31;68037;51.978;5.650;2023-09-19T05:00:21;16.5;63.8
78708;SHT31;68037;51.978;5.650;2023-09-19T05:02:52;16.4;64.4
78708;SHT31;68037;51.978;5.650;2023-09-19T05:05:22;16.4;64.1
78708;SHT31;68037;51.978;5.650;2023-09-19T05:07:55;16.4;64.8
78708;SHT31;68037;51.978;5.650;2023-09-19T05:10:26;16.4;64.7
78708;SHT31;68037;51.978;5.650;2023-09-19T05:12:57;16.4;64.8
78708;SHT31;68037;51.978;5.650;2023-09-19T05:15:28;16.4;64.8
78708;SHT31;68037;51.978;5.650;2023-09-19T05:17:57;16.4;64.7
78708;SHT31;68037;51.978;5.650;2023-09-19T11:17:36;22.4;52.0
78708;SHT31;68037;51.978;5.650;2023-09-19T11:24:30;22.3;51.9
78708;SHT31;68037;51.978;5.650;2023-09-19T11:27:14;22.3;52.3
78708;SHT31;68037;51.978;5.650;2023-09-19T11:29:45;22.3;52.0
78708;SHT31;68037;51.978;5.650;2023-09-19T11:32:16;22.2;52.1
78708;SHT31;68037;51.978;5.650;2023-09-19T11:34:50;22.2;52.9
78708;SHT31;68037;51.978;5.650;2023-09-19T11:38:59;22.2;52.0
78708;SHT31;68037;51.978;5.650;2023-09-19T11:41:40;22.1;52.5
78708;SHT31;68037;51.978;5.650;2023-09-19T11:46:09;22.1;53.0
78708;SHT31;68037;51.978;5.650;2023-09-19T11:48:41;22.1;51.6
78708;SHT31;68037;51.978;5.650;2023-09-19T11:51:14;22.1;51.4
78708;SHT31;68037;51.978;5.650;2023-09-19T11:53:47;22.1;50.8
78708;SHT31;68037;51.978;5.650;2023-09-19T11:56:20;22.1;51.4
78708;SHT31;68037;51.978;5.650;2023-09-19T11:58:54;22.1;52.7
78708;SHT31;68037;51.978;5.650;2023-09-19T12:01:30;22.1;52.0
78708;SHT31;68037;51.978;5.650;2023-09-19T12:04:06;22.2;52.7
78708;SHT31;68037;51.978;5.650;2023-09-19T12:06:39;22.2;52.2
78708;SHT31;68037;51.978;5.650;2023-09-19T12:09:14;22.3;51.5
78708;SHT31;68037;51.978;5.650;2023-09-19T12:11:44;22.4;50.7
78708;SHT31;68037;51.978;5.650;2023-09-19T12:14:24;22.4;51.1
78708;SHT31;68037;51.978;5.650;2023-09-19T12:16:59;22.4;51.2
78708;SHT31;68037;51.978;5.650;2023-09-19T12:19:31;22.4;50.4
78708;SHT31;68037;51.978;5.650;2023-09-19T12:22:03;22.4;50.0
78708;SHT31;68037;51.978;5.650;2023-09-19T12:24:34;22.4;49.5
78708;SHT31;68037;51.978;5.650;2023-09-19T12:27:06;22.4;50.8
78708;SHT31;68037;51.978;5.650;2023-09-19T12:29:47;22.4;50.0
78708;SHT31;68037;51.978;5.650;2023-09-19T12:32:35;22.3;50.2
78708;SHT31;68037;51.978;5.650;2023-09-19T12:35:08;22.2;50.6
78708;SHT31;68037;51.978;5.650;2023-09-19T12:37:43;22.1;51.3
78708;SHT31;68037;51.978;5.650;2023-09-19T12:40:23;22.1;51.1
78708;SHT31;68037;51.978;5.650;2023-09-19T12:42:57;22.0;51.8
78708;SHT31;68037;51.978;5.650;2023-09-19T12:45:30;22.0;52.4
78708;SHT31;68037;51.978;5.650;2023-09-19T12:48:21;21.9;51.9
78708;SHT31;68037;51.978;5.650;2023-09-19T12:51:04;21.9;52.6
78708;SHT31;68037;51.978;5.650;2023-09-19T12:53:37;21.9;52.4
78708;SHT31;68037;51.978;5.650;2023-09-19T12:56:08;21.8;52.8
78708;SHT31;68037;51.978;5.650;2023-09-19T12:58:53;21.8;52.9
78708;SHT31;68037;51.978;5.650;2023-09-19T13:01:26;21.7;53.6
78708;SHT31;68037;51.978;5.650;2023-09-19T13:04:17;21.7;53.6
78708;SHT31;68037;51.978;5.650;2023-09-19T13:06:53;21.7;53.6
78708;SHT31;68037;51.978;5.650;2023-09-19T13:09:28;21.7;54.1
78708;SHT31;68037;51.978;5.650;2023-09-19T13:12:02;21.7;53.7
78708;SHT31;68037;51.978;5.650;2023-09-19T13:14:33;21.7;53.5
78708;SHT31;68037;51.978;5.650;2023-09-19T13:17:08;21.6;52.9
78708;SHT31;68037;51.978;5.650;2023-09-19T13:19:46;21.6;54.3
78708;SHT31;68037;51.978;5.650;2023-09-19T13:22:41;21.6;54.3
78708;SHT31;68037;51.978;5.650;2023-09-19T13:25:14;21.6;54.0
78708;SHT31;68037;51.978;5.650;2023-09-19T13:27:47;21.5;54.3
78708;SHT31;68037;51.978;5.650;2023-09-19T13:30:19;21.5;54.7
78708;SHT31;68037;51.978;5.650;2023-09-19T13:32:49;21.5;54.9
78708;SHT31;68037;51.978;5.650;2023-09-19T13:35:20;21.5;54.9
78708;SHT31;68037;51.978;5.650;2023-09-19T13:37:49;21.5;54.5
78708;SHT31;68037;51.978;5.650;2023-09-19T13:40:19;21.5;54.8
78708;SHT31;68037;51.978;5.650;2023-09-19T13:42:49;21.4;55.2
78708;SHT31;68037;51.978;5.650;2023-09-19T13:45:21;21.4;55.1
78708;SHT31;68037;51.978;5.650;2023-09-19T13:47:52;21.4;55.0
78708;SHT31;68037;51.978;5.650;2023-09-19T13:50:23;21.4;54.7
78708;SHT31;68037;51.978;5.650;2023-09-19T13:52:56;21.5;54.9
78708;SHT31;68037;51.978;5.650;2023-09-19T13:55:28;21.5;54.8
78708;SHT31;68037;51.978;5.650;2023-09-19T13:57:58;21.5;54.8
78708;SHT31;68037;51.978;5.650;2023-09-19T14:00:28;21.5;55.0
78708;SHT31;68037;51.978;5.650;2023-09-19T14:03:01;21.6;54.7
78708;SHT31;68037;51.978;5.650;2023-09-19T14:05:31;21.6;54.7
78708;SHT31;68037;51.978;5.650;2023-09-19T14:08:01;21.7;55.0
78708;SHT31;68037;51.978;5.650;2023-09-19T14:10:32;21.7;54.8
78708;SHT31;68037;51.978;5.650;2023-09-19T14:13:05;21.8;54.4
78708;SHT31;68037;51.978;5.650;2023-09-19T14:15:38;21.8;54.0
78708;SHT31;68037;51.978;5.650;2023-09-19T14:18:08;21.9;53.4
78708;SHT31;68037;51.978;5.650;2023-09-19T14:20:41;21.9;53.6
78708;SHT31;68037;51.978;5.650;2023-09-19T14:23:11;21.9;53.8
78708;SHT31;68037;51.978;5.650;2023-09-19T14:25:41;22.0;53.5
78708;SHT31;68037;51.978;5.650;2023-09-19T14:28:10;22.0;53.2
78708;SHT31;68037;51.978;5.650;2023-09-19T14:30:40;21.9;53.1
78708;SHT31;68037;51.978;5.650;2023-09-19T14:33:10;21.9;53.4
78708;SHT31;68037;51.978;5.650;2023-09-19T14:35:39;21.9;53.6
78708;SHT31;68037;51.978;5.650;2023-09-19T14:38:09;21.8;54.0
78708;SHT31;68037;51.978;5.650;2023-09-19T14:40:39;21.8;53.8
78708;SHT31;68037;51.978;5.650;2023-09-19T14:43:09;21.8;54.2
78708;SHT31;68037;51.978;5.650;2023-09-19T14:45:39;21.8;53.8
78708;SHT31;68037;51.978;5.650;2023-09-19T14:48:11;21.8;53.7
78708;SHT31;68037;51.978;5.650;2023-09-19T14:50:41;21.8;54.1
78708;SHT31;68037;51.978;5.650;2023-09-19T14:53:11;21.8;54.4
78708;SHT31;68037;51.978;5.650;2023-09-19T14:55:43;21.7;54.2
78708;SHT31;68037;51.978;5.650;2023-09-19T14:58:18;21.7;54.6
78708;SHT31;68037;51.978;5.650;2023-09-19T15:00:48;21.7;54.0
78708;SHT31;68037;51.978;5.650;2023-09-19T15:03:19;21.7;54.8
78708;SHT31;68037;51.978;5.650;2023-09-19T15:05:49;21.7;54.7
78708;SHT31;68037;51.978;5.650;2023-09-19T15:08:19;21.7;54.5
78708;SHT31;68037;51.978;5.650;2023-09-19T15:10:51;21.7;54.9
78708;SHT31;68037;51.978;5.650;2023-09-19T15:13:21;21.7;54.8
78708;SHT31;68037;51.978;5.650;2023-09-19T15:16:00;21.7;54.7
78708;SHT31;68037;51.978;5.650;2023-09-19T15:18:31;21.7;55.0
78708;SHT31;68037;51.978;5.650;2023-09-19T15:21:02;21.7;55.5
78708;SHT31;68037;51.978;5.650;2023-09-19T15:23:33;21.7;55.3
78708;SHT31;68037;51.978;5.650;2023-09-19T15:26:04;21.7;55.1
78708;SHT31;68037;51.978;5.650;2023-09-19T15:28:35;21.7;54.9
78708;SHT31;68037;51.978;5.650;2023-09-19T15:31:06;21.7;54.9
78708;SHT31;68037;51.978;5.650;2023-09-19T15:33:37;21.6;54.6
78708;SHT31;68037;51.978;5.650;2023-09-19T15:36:10;21.6;54.8
78708;SHT31;68037;51.978;5.650;2023-09-19T15:39:03;21.6;55.4
78708;SHT31;68037;51.978;5.650;2023-09-19T15:41:36;21.6;55.5
78708;SHT31;68037;51.978;5.650;2023-09-19T15:44:12;21.6;55.2
78708;SHT31;68037;51.978;5.650;2023-09-19T15:46:43;21.6;55.1
78708;SHT31;68037;51.978;5.650;2023-09-19T15:49:14;21.6;54.6
78708;SHT31;68037;51.978;5.650;2023-09-19T15:51:44;21.5;55.0
78708;SHT31;68037;51.978;5.650;2023-09-19T15:54:15;21.5;55.2
78708;SHT31;68037;51.978;5.650;2023-09-19T15:56:46;21.5;55.6
78708;SHT31;68037;51.978;5.650;2023-09-19T15:59:16;21.5;55.7
78708;SHT31;68037;51.978;5.650;2023-09-19T16:01:46;21.4;55.5
78708;SHT31;68037;51.978;5.650;2023-09-19T16:04:16;21.5;55.5
78708;SHT31;68037;51.978;5.650;2023-09-19T16:06:46;21.5;56.5
78708;SHT31;68037;51.978;5.650;2023-09-19T16:09:16;21.5;56.2
78708;SHT31;68037;51.978;5.650;2023-09-19T16:11:46;21.5;56.1
78708;SHT31;68037;51.978;5.650;2023-09-19T16:14:16;21.5;56.6
78708;SHT31;68037;51.978;5.650;2023-09-19T16:16:46;21.5;56.2
78708;SHT31;68037;51.978;5.650;2023-09-19T16:19:17;21.4;56.2
78708;SHT31;68037;51.978;5.650;2023-09-19T16:21:47;21.4;56.7
78708;SHT31;68037;51.978;5.650;2023-09-19T16:24:16;21.3;57.1
78708;SHT31;68037;51.978;5.650;2023-09-19T16:26:46;21.3;57.0
78708;SHT31;68037;51.978;5.650;2023-09-19T16:29:16;21.2;56.8
78708;SHT31;68037;51.978;5.650;2023-09-19T16:31:48;21.2;56.9
78708;SHT31;68037;51.978;5.650;2023-09-19T16:34:20;21.2;57.1
78708;SHT31;68037;51.978;5.650;2023-09-19T16:36:51;21.2;56.8
78708;SHT31;68037;51.978;5.650;2023-09-19T16:39:23;21.2;56.7
78708;SHT31;68037;51.978;5.650;2023-09-19T16:41:53;21.2;56.2
78708;SHT31;68037;51.978;5.650;2023-09-19T16:44:22;21.1;57.0
78708;SHT31;68037;51.978;5.650;2023-09-19T16:46:52;21.1;57.3
78708;SHT31;68037;51.978;5.650;2023-09-19T16:49:22;21.1;57.1
78708;SHT31;68037;51.978;5.650;2023-09-19T16:51:52;21.1;57.7
78708;SHT31;68037;51.978;5.650;2023-09-19T16:54:22;21.2;56.9
78708;SHT31;68037;51.978;5.650;2023-09-19T16:56:51;21.2;57.2
78708;SHT31;68037;51.978;5.650;2023-09-19T16:59:21;21.2;57.1
78708;SHT31;68037;51.978;5.650;2023-09-19T17:01:51;21.2;56.3
78708;SHT31;68037;51.978;5.650;2023-09-19T17:04:24;21.2;56.1
78708;SHT31;68037;51.978;5.650;2023-09-19T17:06:54;21.2;56.4
78708;SHT31;68037;51.978;5.650;2023-09-19T17:09:25;21.2;56.7
78708;SHT31;68037;51.978;5.650;2023-09-19T17:11:54;21.2;57.0
78708;SHT31;68037;51.978;5.650;2023-09-19T17:14:25;21.2;56.8
78708;SHT31;68037;51.978;5.650;2023-09-19T17:16:55;21.2;57.3
78708;SHT31;68037;51.978;5.650;2023-09-19T17:19:25;21.2;57.5
78708;SHT31;68037;51.978;5.650;2023-09-19T17:21:54;21.2;57.5
78708;SHT31;68037;51.978;5.650;2023-09-19T17:24:24;21.2;57.5
78708;SHT31;68037;51.978;5.650;2023-09-19T17:26:54;21.1;57.2
78708;SHT31;68037;51.978;5.650;2023-09-19T17:29:24;21.1;57.4
78708;SHT31;68037;51.978;5.650;2023-09-19T17:31:54;21.1;57.2
78708;SHT31;68037;51.978;5.650;2023-09-19T17:34:24;21.1;57.1
78708;SHT31;68037;51.978;5.650;2023-09-19T17:36:55;21.1;57.1
78708;SHT31;68037;51.978;5.650;2023-09-19T17:39:25;21.1;57.6
78708;SHT31;68037;51.978;5.650;2023-09-19T17:41:55;21.0;57.7
78708;SHT31;68037;51.978;5.650;2023-09-19T17:44:25;21.0;57.7
78708;SHT31;68037;51.978;5.650;2023-09-19T17:47:00;21.0;57.8
78708;SHT31;68037;51.978;5.650;2023-09-19T17:49:30;21.0;57.7
78708;SHT31;68037;51.978;5.650;2023-09-19T17:52:01;21.0;57.5
78708;SHT31;68037;51.978;5.650;2023-09-19T17:54:32;21.0;57.7
78708;SHT31;68037;51.978;5.650;2023-09-19T17:57:01;21.0;57.7
78708;SHT31;68037;51.978;5.650;2023-09-19T17:59:31;21.0;57.8
78708;SHT31;68037;51.978;5.650;2023-09-19T18:02:01;21.0;58.3
78708;SHT31;68037;51.978;5.650;2023-09-19T18:04:31;20.9;58.7
78708;SHT31;68037;51.978;5.650;2023-09-19T18:07:01;20.9;59.5
78708;SHT31;68037;51.978;5.650;2023-09-19T18:09:30;20.8;59.3
78708;SHT31;68037;51.978;5.650;2023-09-19T18:12:03;20.8;59.7
78708;SHT31;68037;51.978;5.650;2023-09-19T18:14:35;20.7;60.5
78708;SHT31;68037;51.978;5.650;2023-09-19T18:17:06;20.6;61.4
78708;SHT31;68037;51.978;5.650;2023-09-19T18:19:37;20.6;61.8
78708;SHT31;68037;51.978;5.650;2023-09-19T18:22:08;20.5;62.2
78708;SHT31;68037;51.978;5.650;2023-09-19T18:24:41;20.5;62.9
78708;SHT31;68037;51.978;5.650;2023-09-19T18:27:10;20.4;63.3
78708;SHT31;68037;51.978;5.650;2023-09-19T18:29:41;20.4;63.8
78708;SHT31;68037;51.978;5.650;2023-09-19T18:32:12;20.4;63.8
78708;SHT31;68037;51.978;5.650;2023-09-19T18:34:42;20.3;64.8
78708;SHT31;68037;51.978;5.650;2023-09-19T18:37:12;20.2;65.2
78708;SHT31;68037;51.978;5.650;2023-09-19T18:39:41;20.1;65.7
78708;SHT31;68037;51.978;5.650;2023-09-19T18:42:11;20.0;65.9
78708;SHT31;68037;51.978;5.650;2023-09-19T18:44:41;20.0;65.9
78708;SHT31;68037;51.978;5.650;2023-09-19T18:47:11;19.9;66.4
78708;SHT31;68037;51.978;5.650;2023-09-19T18:49:41;19.9;66.8
78708;SHT31;68037;51.978;5.650;2023-09-19T18:52:11;19.8;67.3
78708;SHT31;68037;51.978;5.650;2023-09-19T18:54:42;19.8;67.4
78708;SHT31;68037;51.978;5.650;2023-09-19T18:57:12;19.8;67.9
78708;SHT31;68037;51.978;5.650;2023-09-19T18:59:42;19.8;67.3
78708;SHT31;68037;51.978;5.650;2023-09-19T19:02:13;19.7;67.6
78708;SHT31;68037;51.978;5.650;2023-09-19T19:04:44;19.7;67.9
78708;SHT31;68037;51.978;5.650;2023-09-19T19:07:16;19.7;67.8
78708;SHT31;68037;51.978;5.650;2023-09-19T19:09:49;19.6;68.0
78708;SHT31;68037;51.978;5.650;2023-09-19T19:12:20;19.6;68.3
78708;SHT31;68037;51.978;5.650;2023-09-19T19:14:50;19.6;68.1
78708;SHT31;68037;51.978;5.650;2023-09-19T19:17:21;19.6;68.0
78708;SHT31;68037;51.978;5.650;2023-09-19T19:19:51;19.6;67.8
78708;SHT31;68037;51.978;5.650;2023-09-19T19:22:22;19.6;67.5
78708;SHT31;68037;51.978;5.650;2023-09-19T19:24:51;19.6;67.5
78708;SHT31;68037;51.978;5.650;2023-09-19T19:27:21;19.6;67.0
78708;SHT31;68037;51.978;5.650;2023-09-19T19:29:52;19.7;66.9
78708;SHT31;68037;51.978;5.650;2023-09-19T19:32:22;19.7;67.0
78708;SHT31;68037;51.978;5.650;2023-09-19T19:34:54;19.7;66.7
78708;SHT31;68037;51.978;5.650;2023-09-19T19:37:24;19.7;66.7
78708;SHT31;68037;51.978;5.650;2023-09-19T19:39:53;19.7;66.6
78708;SHT31;68037;51.978;5.650;2023-09-19T19:42:24;19.8;66.8
78708;SHT31;68037;51.978;5.650;2023-09-19T19:44:55;19.8;66.2
78708;SHT31;68037;51.978;5.650;2023-09-19T19:47:28;19.8;65.9
78708;SHT31;68037;51.978;5.650;2023-09-19T19:50:00;19.8;65.9
78708;SHT31;68037;51.978;5.650;2023-09-19T19:52:32;19.8;65.8
78708;SHT31;68037;51.978;5.650;2023-09-19T19:55:01;19.8;65.8
78708;SHT31;68037;51.978;5.650;2023-09-19T19:57:32;19.8;65.6
78708;SHT31;68037;51.978;5.650;2023-09-19T20:00:03;19.9;65.7
78708;SHT31;68037;51.978;5.650;2023-09-19T20:02:34;19.9;65.2
78708;SHT31;68037;51.978;5.650;2023-09-19T20:05:05;19.9;65.2
78708;SHT31;68037;51.978;5.650;2023-09-19T20:07:35;19.9;65.0
78708;SHT31;68037;51.978;5.650;2023-09-19T20:10:08;19.9;65.0
78708;SHT31;68037;51.978;5.650;2023-09-19T20:12:39;19.9;64.7
78708;SHT31;68037;51.978;5.650;2023-09-19T20:15:10;19.9;65.1
78708;SHT31;68037;51.978;5.650;2023-09-19T20:17:40;20.0;64.6
78708;SHT31;68037;51.978;5.650;2023-09-19T20:20:14;20.1;64.5
78708;SHT31;68037;51.978;5.650;2023-09-19T20:22:46;20.2;64.0
78708;SHT31;68037;51.978;5.650;2023-09-19T20:25:16;20.3;63.5
78708;SHT31;68037;51.978;5.650;2023-09-19T20:27:50;20.3;63.2
78708;SHT31;68037;51.978;5.650;2023-09-19T20:30:20;20.3;63.0
78708;SHT31;68037;51.978;5.650;2023-09-19T20:32:51;20.3;62.8
78708;SHT31;68037;51.978;5.650;2023-09-19T20:35:25;20.3;62.8
78708;SHT31;68037;51.978;5.650;2023-09-19T20:37:55;20.3;63.0
78708;SHT31;68037;51.978;5.650;2023-09-19T20:40:30;20.3;62.3
78708;SHT31;68037;51.978;5.650;2023-09-19T20:43:03;20.2;62.5
78708;SHT31;68037;51.978;5.650;2023-09-19T20:45:33;20.2;63.0
78708;SHT31;68037;51.978;5.650;2023-09-19T20:48:08;20.2;62.9
78708;SHT31;68037;51.978;5.650;2023-09-19T20:50:38;20.2;63.0
78708;SHT31;68037;51.978;5.650;2023-09-19T20:53:08;20.2;62.7
78708;SHT31;68037;51.978;5.650;2023-09-19T20:55:38;20.2;62.6
78708;SHT31;68037;51.978;5.650;2023-09-19T20:58:08;20.2;63.0
78708;SHT31;68037;51.978;5.650;2023-09-19T21:00:41;20.2;62.9
78708;SHT31;68037;51.978;5.650;2023-09-19T21:03:11;20.2;62.9
78708;SHT31;68037;51.978;5.650;2023-09-19T21:05:43;20.2;62.7
78708;SHT31;68037;51.978;5.650;2023-09-19T21:08:14;20.2;62.9
78708;SHT31;68037;51.978;5.650;2023-09-19T21:10:44;20.2;62.5
78708;SHT31;68037;51.978;5.650;2023-09-19T21:13:13;20.2;62.5
78708;SHT31;68037;51.978;5.650;2023-09-19T21:15:43;20.2;62.6
78708;SHT31;68037;51.978;5.650;2023-09-19T21:18:13;20.2;62.5
78708;SHT31;68037;51.978;5.650;2023-09-19T21:20:45;20.2;62.5
78708;SHT31;68037;51.978;5.650;2023-09-19T21:23:15;20.2;62.6
78708;SHT31;68037;51.978;5.650;2023-09-19T21:25:55;20.2;63.0
78708;SHT31;68037;51.978;5.650;2023-09-19T21:28:25;20.2;63.0
78708;SHT31;68037;51.978;5.650;2023-09-19T21:31:00;20.2;63.3
78708;SHT31;68037;51.978;5.650;2023-09-19T21:33:32;20.2;63.3
78708;SHT31;68037;51.978;5.650;2023-09-19T21:36:14;20.2;63.5
78708;SHT31;68037;51.978;5.650;2023-09-19T21:38:57;20.2;64.2
78708;SHT31;68037;51.978;5.650;2023-09-19T21:41:27;20.2;64.3
78708;SHT31;68037;51.978;5.650;2023-09-19T21:43:56;20.3;64.4
78708;SHT31;68037;51.978;5.650;2023-09-19T21:46:26;20.3;64.3
78708;SHT31;68037;51.978;5.650;2023-09-19T21:48:56;20.3;64.4
78708;SHT31;68037;51.978;5.650;2023-09-19T21:51:29;20.2;64.5
78708;SHT31;68037;51.978;5.650;2023-09-19T21:53:59;20.2;64.5
78708;SHT31;68037;51.978;5.650;2023-09-19T21:56:30;20.2;64.3
78708;SHT31;68037;51.978;5.650;2023-09-19T21:59:02;20.1;64.4
78708;SHT31;68037;51.978;5.650;2023-09-19T22:01:32;20.1;64.7
78708;SHT31;68037;51.978;5.650;2023-09-19T22:04:02;20.1;65.1
78708;SHT31;68037;51.978;5.650;2023-09-19T22:06:33;20.0;65.0
78708;SHT31;68037;51.978;5.650;2023-09-19T22:09:03;20.0;64.6
78708;SHT31;68037;51.978;5.650;2023-09-19T22:11:33;20.0;64.6
78708;SHT31;68037;51.978;5.650;2023-09-19T22:14:04;20.0;64.8
78708;SHT31;68037;51.978;5.650;2023-09-19T22:16:36;20.0;64.6
78708;SHT31;68037;51.978;5.650;2023-09-19T22:19:06;19.9;64.5
78708;SHT31;68037;51.978;5.650;2023-09-19T22:21:36;19.9;64.9
78708;SHT31;68037;51.978;5.650;2023-09-19T22:24:08;19.9;64.8
78708;SHT31;68037;51.978;5.650;2023-09-19T22:26:38;19.9;64.7
78708;SHT31;68037;51.978;5.650;2023-09-19T22:29:15;19.9;64.9
78708;SHT31;68037;51.978;5.650;2023-09-19T22:31:45;20.0;64.7
78708;SHT31;68037;51.978;5.650;2023-09-19T22:34:17;20.0;64.6
78708;SHT31;68037;51.978;5.650;2023-09-19T22:36:47;20.0;64.7